createdAt,value
2022-10-30T00:01:08.695Z,12.90
2022-10-30T00:04:30.256Z,12.80
2022-10-30T00:07:51.803Z,12.90
2022-10-30T00:11:13.616Z,12.90
2022-10-30T00:14:35.184Z,12.90
2022-10-30T00:17:58.417Z,12.90
2022-10-30T00:21:20.110Z,12.90
2022-10-30T00:24:41.695Z,12.90
2022-10-30T00:28:03.452Z,12.80
2022-10-30T00:31:25.000Z,12.70
2022-10-30T00:34:47.875Z,12.70
2022-10-30T00:38:09.418Z,12.60
2022-10-30T00:41:31.035Z,12.70
2022-10-30T00:44:52.598Z,12.60
2022-10-30T00:48:14.172Z,12.60
2022-10-30T00:51:37.854Z,12.60
2022-10-30T00:55:01.972Z,12.60
2022-10-30T00:58:25.808Z,12.50
2022-10-30T01:01:47.878Z,12.50
2022-10-30T01:08:33.919Z,12.40
2022-10-30T01:11:55.507Z,12.40
2022-10-30T01:15:17.520Z,12.40
2022-10-30T01:18:42.910Z,12.40
2022-10-30T01:22:11.781Z,12.30
2022-10-30T01:25:48.384Z,12.30
2022-10-30T01:29:17.405Z,12.30
2022-10-30T01:32:45.188Z,12.20
2022-10-30T01:36:13.271Z,12.20
2022-10-30T01:39:36.418Z,12.20
2022-10-30T01:42:59.854Z,12.30
2022-10-30T01:46:33.321Z,12.20
2022-10-30T01:50:07.286Z,12.20
2022-10-30T01:53:36.088Z,12.20
2022-10-30T01:57:01.664Z,12.10
2022-10-30T02:00:24.675Z,12.20
2022-10-30T02:03:46.372Z,12.20
2022-10-30T02:07:08.017Z,12.20
2022-10-30T02:10:30.489Z,12.20
2022-10-30T02:13:52.856Z,12.10
2022-10-30T02:17:15.828Z,12.10
2022-10-30T02:20:38.811Z,12.10
2022-10-30T02:24:00.357Z,12.00
2022-10-30T02:27:21.930Z,12.00
2022-10-30T02:30:43.601Z,12.00
2022-10-30T02:34:05.221Z,12.00
2022-10-30T02:37:28.100Z,12.00
2022-10-30T02:40:49.658Z,12.00
2022-10-30T02:44:11.220Z,12.00
2022-10-30T02:47:32.762Z,12.00
2022-10-30T02:50:58.843Z,12.00
2022-10-30T02:54:21.767Z,12.10
2022-10-30T02:57:43.322Z,12.00
2022-10-30T03:01:05.755Z,12.00
2022-10-30T03:04:27.314Z,12.00
2022-10-30T03:07:49.049Z,12.00
2022-10-30T03:11:12.782Z,11.90
2022-10-30T03:14:34.319Z,12.00
2022-10-30T03:17:56.281Z,11.90
2022-10-30T03:21:19.037Z,11.90
2022-10-30T03:24:40.598Z,11.80
2022-10-30T03:28:03.623Z,11.80
2022-10-30T03:31:25.192Z,11.80
2022-10-30T03:34:46.756Z,11.70
2022-10-30T03:38:08.337Z,11.70
2022-10-30T03:41:29.983Z,11.70
2022-10-30T03:44:52.892Z,11.60
2022-10-30T03:48:14.552Z,11.50
2022-10-30T03:51:36.106Z,11.50
2022-10-30T03:54:57.657Z,11.50
2022-10-30T03:58:19.266Z,11.50
2022-10-30T04:01:42.361Z,11.40
2022-10-30T04:05:04.355Z,11.40
2022-10-30T04:08:25.906Z,11.40
2022-10-30T04:11:47.479Z,11.40
2022-10-30T04:15:09.076Z,11.40
2022-10-30T04:18:32.172Z,11.40
2022-10-30T04:21:53.709Z,11.30
2022-10-30T04:25:15.338Z,11.20
2022-10-30T04:28:36.904Z,11.20
2022-10-30T04:31:58.492Z,11.20
2022-10-30T04:35:22.052Z,11.10
2022-10-30T04:38:43.616Z,11.10
2022-10-30T04:42:05.191Z,11.00
2022-10-30T04:45:26.737Z,11.00
2022-10-30T04:48:48.348Z,10.90
2022-10-30T04:52:11.243Z,10.90
2022-10-30T04:55:33.130Z,10.80
2022-10-30T04:58:54.686Z,10.80
2022-10-30T05:02:16.564Z,10.80
2022-10-30T05:05:38.280Z,10.70
2022-10-30T05:09:01.259Z,10.70
2022-10-30T05:12:22.970Z,10.70
2022-10-30T05:15:44.517Z,10.70
2022-10-30T05:19:06.100Z,10.70
2022-10-30T05:22:27.689Z,10.70
2022-10-30T05:25:50.614Z,10.70
2022-10-30T05:29:12.177Z,10.70
2022-10-30T05:32:33.736Z,10.70
2022-10-30T05:35:55.296Z,10.70
2022-10-30T05:39:16.846Z,10.60
2022-10-30T05:42:44.461Z,10.60
2022-10-30T05:46:06.003Z,10.60
2022-10-30T05:49:27.558Z,10.60
2022-10-30T05:52:49.160Z,10.60
2022-10-30T05:56:10.692Z,10.60
2022-10-30T05:59:33.603Z,10.60
2022-10-30T06:02:58.995Z,10.50
2022-10-30T06:06:20.791Z,10.60
2022-10-30T06:09:42.340Z,10.60
2022-10-30T06:13:04.997Z,10.60
2022-10-30T06:16:27.906Z,10.60
2022-10-30T06:19:49.470Z,10.60
2022-10-30T06:23:11.145Z,10.70
2022-10-30T06:26:32.697Z,10.70
2022-10-30T06:29:54.262Z,10.80
2022-10-30T06:33:17.507Z,10.80
2022-10-30T06:36:39.211Z,10.90
2022-10-30T06:40:00.929Z,10.90
2022-10-30T06:43:22.500Z,11.00
2022-10-30T06:46:44.081Z,11.10
2022-10-30T06:50:07.982Z,11.20
2022-10-30T06:53:29.607Z,11.30
2022-10-30T06:56:51.263Z,11.40
2022-10-30T07:00:13.466Z,11.50
2022-10-30T07:03:35.035Z,11.50
2022-10-30T07:06:57.917Z,11.60
2022-10-30T07:10:19.450Z,11.70
2022-10-30T07:13:41.003Z,11.80
2022-10-30T07:17:02.555Z,11.90
2022-10-30T07:20:24.143Z,11.80
2022-10-30T07:23:47.053Z,11.80
2022-10-30T07:27:08.798Z,11.90
2022-10-30T07:30:30.342Z,11.90
2022-10-30T07:33:51.892Z,11.90
2022-10-30T07:37:13.423Z,12.00
2022-10-30T07:40:36.540Z,12.10
2022-10-30T07:43:58.103Z,12.20
2022-10-30T07:47:19.653Z,12.30
2022-10-30T07:50:41.596Z,12.40
2022-10-30T07:54:03.350Z,12.50
2022-10-30T07:57:26.248Z,12.90
2022-10-30T08:00:47.873Z,13.60
2022-10-30T08:04:09.423Z,14.40
2022-10-30T08:07:31.162Z,15.40
2022-10-30T08:10:52.710Z,16.00
2022-10-30T08:14:15.602Z,16.70
2022-10-30T08:17:41.335Z,17.40
2022-10-30T08:21:02.985Z,18.20
2022-10-30T08:24:24.531Z,18.90
2022-10-30T08:27:50.399Z,19.50
2022-10-30T08:31:13.324Z,20.10
2022-10-30T08:34:35.052Z,20.80
2022-10-30T08:37:57.024Z,21.50
2022-10-30T08:41:18.807Z,21.80
2022-10-30T08:44:40.364Z,22.10
2022-10-30T08:48:04.447Z,22.10
2022-10-30T08:51:26.006Z,22.20
2022-10-30T08:54:47.576Z,22.30
2022-10-30T08:58:09.497Z,22.40
2022-10-30T09:01:31.323Z,22.50
2022-10-30T09:04:54.758Z,22.30
2022-10-30T09:08:16.408Z,21.40
2022-10-30T09:11:37.970Z,20.50
2022-10-30T09:14:59.558Z,19.30
2022-10-30T09:18:21.093Z,18.60
2022-10-30T09:21:43.991Z,18.10
2022-10-30T09:25:05.723Z,17.70
2022-10-30T09:28:27.282Z,17.50
2022-10-30T09:31:48.917Z,17.30
2022-10-30T09:35:10.530Z,17.20
2022-10-30T09:38:33.478Z,17.10
2022-10-30T09:42:03.393Z,17.00
2022-10-30T09:45:30.626Z,17.10
2022-10-30T09:49:07.121Z,17.10
2022-10-30T09:52:30.830Z,17.20
2022-10-30T09:55:57.712Z,17.20
2022-10-30T09:59:28.615Z,17.20
2022-10-30T10:02:53.214Z,17.20
2022-10-30T10:06:17.359Z,17.30
2022-10-30T10:09:39.251Z,17.40
2022-10-30T10:13:03.170Z,17.40
2022-10-30T10:16:26.914Z,17.40
2022-10-30T10:19:49.839Z,17.50
2022-10-30T10:23:15.327Z,17.60
2022-10-30T10:26:42.833Z,17.70
2022-10-30T10:30:08.614Z,17.80
2022-10-30T10:33:38.400Z,17.90
2022-10-30T10:37:06.046Z,18.00
2022-10-30T10:40:34.128Z,18.10
2022-10-30T10:44:01.207Z,18.20
2022-10-30T10:47:40.219Z,18.30
2022-10-30T10:51:02.931Z,18.40
2022-10-30T10:54:27.902Z,18.50
2022-10-30T10:57:51.366Z,18.60
2022-10-30T11:01:14.341Z,18.60
2022-10-30T11:04:39.143Z,18.80
2022-10-30T11:08:05.222Z,18.90
2022-10-30T11:11:26.925Z,19.10
2022-10-30T11:14:48.609Z,19.20
2022-10-30T11:18:10.580Z,19.40
2022-10-30T11:21:35.176Z,19.40
2022-10-30T11:24:58.368Z,19.40
2022-10-30T11:28:31.853Z,19.40
2022-10-30T11:32:00.269Z,19.50
2022-10-30T11:35:22.335Z,19.50
2022-10-30T11:38:45.296Z,19.60
2022-10-30T11:42:11.897Z,19.60
2022-10-30T11:45:35.353Z,19.60
2022-10-30T11:48:56.912Z,19.60
2022-10-30T11:52:20.247Z,19.60
2022-10-30T11:55:45.903Z,19.60
2022-10-30T11:59:14.960Z,19.70
2022-10-30T12:02:40.851Z,19.70
2022-10-30T12:06:09.590Z,19.80
2022-10-30T12:09:31.167Z,19.80
2022-10-30T12:12:54.169Z,20.00
2022-10-30T12:16:16.469Z,20.10
2022-10-30T12:19:38.048Z,20.20
2022-10-30T12:23:08.477Z,20.40
2022-10-30T12:26:30.090Z,20.50
2022-10-30T12:30:09.958Z,20.70
2022-10-30T12:33:34.971Z,20.80
2022-10-30T12:36:58.706Z,21.00
2022-10-30T12:40:23.133Z,21.10
2022-10-30T12:43:48.262Z,21.20
2022-10-30T12:47:17.101Z,21.40
2022-10-30T12:50:42.302Z,21.40
2022-10-30T12:54:07.606Z,21.40
2022-10-30T12:57:32.098Z,21.40
2022-10-30T13:00:56.016Z,21.40
2022-10-30T13:04:20.878Z,21.30
2022-10-30T13:07:45.827Z,21.20
2022-10-30T13:11:11.576Z,21.30
2022-10-30T13:14:35.119Z,21.20
2022-10-30T13:17:58.361Z,21.10
2022-10-30T13:21:24.044Z,21.10
2022-10-30T13:24:49.646Z,21.10
2022-10-30T13:28:13.151Z,21.10
2022-10-30T13:31:39.260Z,21.10
2022-10-30T13:35:04.771Z,21.10
2022-10-30T13:38:35.037Z,21.10
2022-10-30T13:42:01.019Z,21.10
2022-10-30T13:45:37.485Z,21.20
2022-10-30T13:49:09.163Z,21.20
2022-10-30T13:52:32.719Z,21.30
2022-10-30T13:55:56.003Z,21.30
2022-10-30T13:59:24.668Z,21.20
2022-10-30T14:02:53.248Z,21.20
2022-10-30T14:06:21.473Z,21.20
2022-10-30T14:09:50.047Z,21.20
2022-10-30T14:13:17.289Z,21.20
2022-10-30T14:16:42.119Z,21.20
2022-10-30T14:20:25.950Z,21.10
2022-10-30T14:23:47.534Z,21.00
2022-10-30T14:27:09.973Z,20.90
2022-10-30T14:30:33.824Z,20.80
2022-10-30T14:33:55.877Z,20.70
2022-10-30T14:37:18.400Z,20.60
2022-10-30T14:40:41.694Z,20.50
2022-10-30T14:44:19.721Z,20.30
2022-10-30T14:47:57.239Z,20.10
2022-10-30T14:51:21.415Z,19.80
2022-10-30T14:54:45.427Z,19.70
2022-10-30T14:58:16.083Z,19.50
2022-10-30T15:01:43.967Z,19.30
2022-10-30T15:05:19.906Z,19.10
2022-10-30T15:09:00.829Z,19.10
2022-10-30T15:12:26.302Z,18.90
2022-10-30T15:15:57.056Z,18.80
2022-10-30T15:19:19.883Z,18.70
2022-10-30T15:22:42.905Z,18.60
2022-10-30T15:26:09.483Z,18.60
2022-10-30T15:29:33.623Z,18.50
2022-10-30T15:32:55.178Z,18.40
2022-10-30T15:36:17.620Z,18.30
2022-10-30T15:39:40.522Z,18.20
2022-10-30T15:43:03.172Z,18.20
2022-10-30T15:46:24.876Z,18.10
2022-10-30T15:49:48.878Z,18.00
2022-10-30T15:53:16.752Z,17.90
2022-10-30T15:57:08.626Z,17.80
2022-10-30T16:00:25.002Z,17.80
2022-10-30T16:03:50.984Z,17.60
2022-10-30T16:07:16.960Z,17.60
2022-10-30T16:10:39.450Z,17.40
2022-10-30T16:14:06.971Z,17.30
2022-10-30T16:17:30.277Z,17.20
2022-10-30T16:20:52.851Z,17.00
2022-10-30T16:24:15.082Z,16.80
2022-10-30T16:27:42.849Z,16.60
2022-10-30T16:31:07.876Z,16.40
2022-10-30T16:34:30.606Z,16.30
2022-10-30T16:37:52.627Z,16.20
2022-10-30T16:41:14.364Z,16.00
2022-10-30T16:44:36.088Z,15.90
2022-10-30T16:48:05.897Z,15.70
2022-10-30T16:51:30.329Z,15.60
2022-10-30T16:54:53.366Z,15.60
2022-10-30T16:58:15.812Z,15.50
2022-10-30T17:01:37.660Z,15.40
2022-10-30T17:05:02.977Z,15.30
2022-10-30T17:08:31.938Z,15.20
2022-10-30T17:12:01.907Z,15.10
2022-10-30T17:15:25.826Z,15.10
2022-10-30T17:18:47.395Z,15.00
2022-10-30T17:22:13.609Z,14.90
2022-10-30T17:25:36.241Z,14.90
2022-10-30T17:28:57.816Z,14.90
2022-10-30T17:32:20.215Z,14.90
2022-10-30T17:35:41.846Z,14.80
2022-10-30T17:39:04.983Z,14.90
2022-10-30T17:42:26.541Z,14.90
2022-10-30T17:45:48.094Z,14.90
2022-10-30T17:49:18.213Z,15.00
2022-10-30T17:52:39.764Z,15.10
2022-10-30T17:56:04.946Z,15.10
2022-10-30T17:59:26.498Z,14.90
2022-10-30T18:02:48.038Z,14.80
2022-10-30T18:06:14.717Z,14.60
2022-10-30T18:09:36.393Z,14.50
2022-10-30T18:12:59.617Z,14.40
2022-10-30T18:16:21.377Z,14.40
2022-10-30T18:19:42.927Z,14.20
2022-10-30T18:23:04.905Z,14.20
2022-10-30T18:26:26.895Z,14.20
2022-10-30T18:29:49.801Z,14.20
2022-10-30T18:33:11.327Z,14.20
2022-10-30T18:36:32.880Z,14.20
2022-10-30T18:39:54.553Z,14.10
2022-10-30T18:43:16.404Z,14.00
2022-10-30T18:46:39.525Z,13.90
2022-10-30T18:50:01.099Z,13.80
2022-10-30T18:53:22.658Z,13.70
2022-10-30T18:56:44.205Z,13.70
2022-10-30T19:00:06.301Z,13.60
2022-10-30T19:03:29.233Z,13.50
2022-10-30T19:06:50.848Z,13.50
2022-10-30T19:10:12.902Z,13.50
2022-10-30T19:13:34.507Z,13.40
2022-10-30T19:16:56.105Z,13.40
2022-10-30T19:20:22.131Z,13.30
2022-10-30T19:23:43.843Z,13.30
2022-10-30T19:27:05.405Z,13.10
2022-10-30T19:30:27.154Z,13.10
2022-10-30T19:33:52.903Z,13.10
2022-10-30T19:37:19.180Z,13.20
2022-10-30T19:40:40.746Z,13.20
2022-10-30T19:44:02.355Z,13.10
2022-10-30T19:47:23.916Z,13.00
2022-10-30T19:50:46.206Z,13.00
2022-10-30T19:54:09.155Z,13.00
2022-10-30T19:57:30.770Z,13.00
2022-10-30T20:00:52.466Z,12.90
2022-10-30T20:04:14.043Z,12.90
2022-10-30T20:07:35.587Z,12.90
2022-10-30T20:10:59.276Z,12.80
2022-10-30T20:14:21.147Z,12.80
2022-10-30T20:17:43.055Z,12.80
2022-10-30T20:21:05.486Z,12.80
2022-10-30T20:24:27.034Z,12.80
2022-10-30T20:27:50.692Z,12.80
2022-10-30T20:31:12.395Z,12.70
2022-10-30T20:34:33.954Z,12.60
2022-10-30T20:37:57.499Z,12.60
2022-10-30T20:41:20.314Z,12.70
2022-10-30T20:44:43.241Z,12.80
2022-10-30T20:48:04.919Z,12.80
2022-10-30T20:51:26.475Z,12.80
2022-10-30T20:54:48.107Z,12.90
2022-10-30T20:58:09.924Z,12.80
2022-10-30T21:01:33.054Z,12.70
2022-10-30T21:04:54.671Z,12.70
2022-10-30T21:08:16.234Z,12.60
2022-10-30T21:11:37.804Z,12.40
2022-10-30T21:14:59.426Z,12.40
2022-10-30T21:18:22.341Z,12.30
2022-10-30T21:21:43.920Z,12.30
2022-10-30T21:25:05.759Z,12.30
2022-10-30T21:28:27.407Z,12.40
2022-10-30T21:31:49.072Z,12.30
2022-10-30T21:35:11.985Z,12.20
2022-10-30T21:38:33.691Z,12.20
2022-10-30T21:41:55.303Z,12.10
2022-10-30T21:45:16.980Z,12.00
2022-10-30T21:48:38.714Z,11.90
2022-10-30T21:52:01.620Z,11.80
2022-10-30T21:55:23.269Z,11.80
2022-10-30T21:58:44.946Z,11.80
2022-10-30T22:02:06.623Z,11.80
2022-10-30T22:05:28.219Z,11.80
2022-10-30T22:08:52.143Z,11.80
2022-10-30T22:12:13.704Z,11.80
2022-10-30T22:15:35.274Z,11.70
2022-10-30T22:18:57.162Z,11.60
2022-10-30T22:22:18.764Z,11.50
2022-10-30T22:25:41.724Z,11.50
2022-10-30T22:29:03.298Z,11.50
2022-10-30T22:32:24.856Z,11.40
2022-10-30T22:35:46.742Z,11.40
2022-10-30T22:39:10.672Z,11.40
2022-10-30T22:42:35.855Z,11.40
2022-10-30T22:45:57.407Z,11.30
2022-10-30T22:49:18.959Z,11.30
2022-10-30T22:52:40.501Z,11.30
2022-10-30T22:56:10.244Z,11.20
2022-10-30T22:59:33.187Z,11.30
2022-10-30T23:02:54.821Z,11.20
2022-10-30T23:06:16.431Z,11.30
2022-10-30T23:09:38.003Z,11.30
2022-10-30T23:12:59.879Z,11.20
2022-10-30T23:16:23.715Z,11.20
2022-10-30T23:19:45.273Z,11.20
2022-10-30T23:23:06.825Z,11.20
2022-10-30T23:26:29.523Z,11.20
2022-10-30T23:29:51.071Z,11.20
2022-10-30T23:33:13.968Z,11.10
2022-10-30T23:36:35.872Z,11.10
2022-10-30T23:39:57.424Z,10.90
2022-10-30T23:43:18.992Z,10.90
2022-10-30T23:46:40.832Z,10.90
2022-10-30T23:50:04.039Z,10.90
2022-10-30T23:53:25.571Z,10.90
2022-10-30T23:56:47.119Z,10.90
